sensor_id;sensor_type;location;lat;lon;timestamp;temperature;humidity
22471;DHT22;11402;51.374;6.594;2023-05-07T00:01:43;15.20;99.90
22471;DHT22;11402;51.374;6.594;2023-05-07T00:04:09;15.30;99.90
22471;DHT22;11402;51.374;6.594;2023-05-07T00:06:35;15.20;99.90
22471;DHT22;11402;51.374;6.594;2023-05-07T00:09:01;15.20;99.90
22471;DHT22;11402;51.374;6.594;2023-05-07T00:11:27;15.20;99.90
22471;DHT22;11402;51.374;6.594;2023-05-07T00:13:53;15.20;99.90
22471;DHT22;11402;51.374;6.594;2023-05-07T00:16:19;15.20;99.90
22471;DHT22;11402;51.374;6.594;2023-05-07T00:18:44;15.20;99.90
22471;DHT22;11402;51.374;6.594;2023-05-07T00:21:10;15.10;99.90
22471;DHT22;11402;51.374;6.594;2023-05-07T00:23:36;15.10;99.90
22471;DHT22;11402;51.374;6.594;2023-05-07T00:26:02;15.20;99.90
22471;DHT22;11402;51.374;6.594;2023-05-07T00:28:28;15.20;99.90
22471;DHT22;11402;51.374;6.594;2023-05-07T00:30:53;15.20;99.90
22471;DHT22;11402;51.374;6.594;2023-05-07T00:33:19;15.20;99.90
22471;DHT22;11402;51.374;6.594;2023-05-07T00:35:46;15.20;99.90
22471;DHT22;11402;51.374;6.594;2023-05-07T00:38:12;15.10;99.90
22471;DHT22;11402;51.374;6.594;2023-05-07T00:40:38;15.00;99.90
22471;DHT22;11402;51.374;6.594;2023-05-07T00:43:03;14.90;99.90
22471;DHT22;11402;51.374;6.594;2023-05-07T00:45:29;14.90;99.90
22471;DHT22;11402;51.374;6.594;2023-05-07T00:48:00;15.00;99.90
22471;DHT22;11402;51.374;6.594;2023-05-07T00:50:30;14.90;99.90
22471;DHT22;11402;51.374;6.594;2023-05-07T00:52:56;14.80;99.90
22471;DHT22;11402;51.374;6.594;2023-05-07T00:55:23;14.90;99.90
22471;DHT22;11402;51.374;6.594;2023-05-07T00:57:49;15.00;99.90
22471;DHT22;11402;51.374;6.594;2023-05-07T01:00:15;15.00;99.90
22471;DHT22;11402;51.374;6.594;2023-05-07T01:02:42;14.90;99.90
22471;DHT22;11402;51.374;6.594;2023-05-07T01:05:10;14.80;99.90
22471;DHT22;11402;51.374;6.594;2023-05-07T01:07:37;14.70;99.90
22471;DHT22;11402;51.374;6.594;2023-05-07T01:10:05;14.80;99.90
22471;DHT22;11402;51.374;6.594;2023-05-07T01:12:32;14.70;99.90
22471;DHT22;11402;51.374;6.594;2023-05-07T01:14:58;14.70;99.90
22471;DHT22;11402;51.374;6.594;2023-05-07T01:17:24;14.60;99.90
22471;DHT22;11402;51.374;6.594;2023-05-07T01:19:50;14.60;99.90
22471;DHT22;11402;51.374;6.594;2023-05-07T01:22:16;14.60;99.90
22471;DHT22;11402;51.374;6.594;2023-05-07T01:24:46;14.60;99.90
22471;DHT22;11402;51.374;6.594;2023-05-07T01:27:12;14.60;99.90
22471;DHT22;11402;51.374;6.594;2023-05-07T01:29:38;14.70;99.90
22471;DHT22;11402;51.374;6.594;2023-05-07T01:32:05;14.60;99.90
22471;DHT22;11402;51.374;6.594;2023-05-07T01:34:32;14.60;99.90
22471;DHT22;11402;51.374;6.594;2023-05-07T01:37:00;14.60;99.90
22471;DHT22;11402;51.374;6.594;2023-05-07T01:39:27;14.50;99.90
22471;DHT22;11402;51.374;6.594;2023-05-07T01:41:56;14.40;99.90
22471;DHT22;11402;51.374;6.594;2023-05-07T01:44:22;14.40;99.90
22471;DHT22;11402;51.374;6.594;2023-05-07T01:46:49;14.40;99.90
22471;DHT22;11402;51.374;6.594;2023-05-07T01:49:16;14.40;99.90
22471;DHT22;11402;51.374;6.594;2023-05-07T01:51:42;14.30;99.90
22471;DHT22;11402;51.374;6.594;2023-05-07T01:54:08;14.30;99.90
22471;DHT22;11402;51.374;6.594;2023-05-07T01:56:34;14.30;99.90
22471;DHT22;11402;51.374;6.594;2023-05-07T01:59:00;14.50;99.90
22471;DHT22;11402;51.374;6.594;2023-05-07T02:01:26;14.50;99.90
22471;DHT22;11402;51.374;6.594;2023-05-07T02:03:51;14.50;99.90
22471;DHT22;11402;51.374;6.594;2023-05-07T02:06:17;14.40;99.90
22471;DHT22;11402;51.374;6.594;2023-05-07T02:08:42;14.40;99.90
22471;DHT22;11402;51.374;6.594;2023-05-07T02:11:08;14.40;99.90
22471;DHT22;11402;51.374;6.594;2023-05-07T02:13:34;14.50;99.90
22471;DHT22;11402;51.374;6.594;2023-05-07T02:16:00;14.50;99.90
22471;DHT22;11402;51.374;6.594;2023-05-07T02:18:26;14.40;99.90
22471;DHT22;11402;51.374;6.594;2023-05-07T02:20:52;14.40;99.90
22471;DHT22;11402;51.374;6.594;2023-05-07T02:23:17;14.40;99.90
22471;DHT22;11402;51.374;6.594;2023-05-07T02:25:43;14.40;99.90
22471;DHT22;11402;51.374;6.594;2023-05-07T02:28:08;14.40;99.90
22471;DHT22;11402;51.374;6.594;2023-05-07T02:30:35;14.30;99.90
22471;DHT22;11402;51.374;6.594;2023-05-07T02:33:01;14.40;99.90
22471;DHT22;11402;51.374;6.594;2023-05-07T02:35:27;14.30;99.90
22471;DHT22;11402;51.374;6.594;2023-05-07T02:37:53;14.30;99.90
22471;DHT22;11402;51.374;6.594;2023-05-07T02:40:18;14.30;99.90
22471;DHT22;11402;51.374;6.594;2023-05-07T02:42:44;14.20;99.90
22471;DHT22;11402;51.374;6.594;2023-05-07T02:45:10;14.20;99.90
22471;DHT22;11402;51.374;6.594;2023-05-07T02:47:36;14.00;99.90
22471;DHT22;11402;51.374;6.594;2023-05-07T02:50:02;14.00;99.90
22471;DHT22;11402;51.374;6.594;2023-05-07T02:52:27;13.90;99.90
22471;DHT22;11402;51.374;6.594;2023-05-07T02:54:53;13.90;99.90
22471;DHT22;11402;51.374;6.594;2023-05-07T02:57:18;13.90;99.90
22471;DHT22;11402;51.374;6.594;2023-05-07T02:59:44;14.00;99.90
22471;DHT22;11402;51.374;6.594;2023-05-07T03:02:09;14.10;99.90
22471;DHT22;11402;51.374;6.594;2023-05-07T03:04:35;14.10;99.90
22471;DHT22;11402;51.374;6.594;2023-05-07T03:07:01;14.00;99.90
22471;DHT22;11402;51.374;6.594;2023-05-07T03:09:26;14.00;99.90
22471;DHT22;11402;51.374;6.594;2023-05-07T03:11:52;14.00;99.90
22471;DHT22;11402;51.374;6.594;2023-05-07T03:14:18;13.90;99.90
22471;DHT22;11402;51.374;6.594;2023-05-07T03:16:43;13.80;99.90
22471;DHT22;11402;51.374;6.594;2023-05-07T03:19:09;13.70;99.90
22471;DHT22;11402;51.374;6.594;2023-05-07T03:21:34;13.80;99.90
22471;DHT22;11402;51.374;6.594;2023-05-07T03:24:00;13.70;99.90
22471;DHT22;11402;51.374;6.594;2023-05-07T03:26:26;13.90;99.90
22471;DHT22;11402;51.374;6.594;2023-05-07T03:28:51;14.00;99.90
22471;DHT22;11402;51.374;6.594;2023-05-07T03:31:17;13.90;99.90
22471;DHT22;11402;51.374;6.594;2023-05-07T03:33:57;13.90;99.90
22471;DHT22;11402;51.374;6.594;2023-05-07T03:36:23;13.90;99.90
22471;DHT22;11402;51.374;6.594;2023-05-07T03:38:49;14.00;99.90
22471;DHT22;11402;51.374;6.594;2023-05-07T03:41:15;14.00;99.90
22471;DHT22;11402;51.374;6.594;2023-05-07T03:43:41;14.00;99.90
22471;DHT22;11402;51.374;6.594;2023-05-07T03:46:06;14.00;99.90
22471;DHT22;11402;51.374;6.594;2023-05-07T03:48:32;13.90;99.90
22471;DHT22;11402;51.374;6.594;2023-05-07T03:50:58;13.90;99.90
22471;DHT22;11402;51.374;6.594;2023-05-07T03:53:24;13.80;99.90
22471;DHT22;11402;51.374;6.594;2023-05-07T03:55:50;13.90;99.90
22471;DHT22;11402;51.374;6.594;2023-05-07T03:58:15;13.90;99.90
22471;DHT22;11402;51.374;6.594;2023-05-07T04:00:41;13.90;99.90
22471;DHT22;11402;51.374;6.594;2023-05-07T04:03:07;13.90;99.90
22471;DHT22;11402;51.374;6.594;2023-05-07T04:05:32;13.90;99.90
22471;DHT22;11402;51.374;6.594;2023-05-07T04:07:59;14.00;99.90
22471;DHT22;11402;51.374;6.594;2023-05-07T04:10:25;14.00;99.90
22471;DHT22;11402;51.374;6.594;2023-05-07T04:12:50;14.00;99.90
22471;DHT22;11402;51.374;6.594;2023-05-07T04:15:16;13.90;99.90
22471;DHT22;11402;51.374;6.594;2023-05-07T04:17:42;13.90;99.90
22471;DHT22;11402;51.374;6.594;2023-05-07T04:20:14;13.90;99.90
22471;DHT22;11402;51.374;6.594;2023-05-07T04:22:40;13.80;99.90
22471;DHT22;11402;51.374;6.594;2023-05-07T04:25:06;13.90;99.90
22471;DHT22;11402;51.374;6.594;2023-05-07T04:27:33;13.80;99.90
22471;DHT22;11402;51.374;6.594;2023-05-07T04:29:58;13.90;99.90
22471;DHT22;11402;51.374;6.594;2023-05-07T04:32:26;13.80;99.90
22471;DHT22;11402;51.374;6.594;2023-05-07T04:34:52;13.80;99.90
22471;DHT22;11402;51.374;6.594;2023-05-07T04:37:17;13.80;99.90
22471;DHT22;11402;51.374;6.594;2023-05-07T04:39:43;13.80;99.90
22471;DHT22;11402;51.374;6.594;2023-05-07T04:42:08;13.90;99.90
22471;DHT22;11402;51.374;6.594;2023-05-07T04:44:34;13.90;99.90
22471;DHT22;11402;51.374;6.594;2023-05-07T04:47:00;13.90;99.90
22471;DHT22;11402;51.374;6.594;2023-05-07T04:49:26;13.90;99.90
22471;DHT22;11402;51.374;6.594;2023-05-07T04:51:52;13.90;99.90
22471;DHT22;11402;51.374;6.594;2023-05-07T04:54:17;14.00;99.90
22471;DHT22;11402;51.374;6.594;2023-05-07T04:56:43;14.00;99.90
22471;DHT22;11402;51.374;6.594;2023-05-07T04:59:08;14.00;99.90
22471;DHT22;11402;51.374;6.594;2023-05-07T05:01:34;14.10;99.90
22471;DHT22;11402;51.374;6.594;2023-05-07T05:04:00;14.20;99.90
22471;DHT22;11402;51.374;6.594;2023-05-07T05:06:25;14.20;99.90
22471;DHT22;11402;51.374;6.594;2023-05-07T05:08:51;14.40;99.90
22471;DHT22;11402;51.374;6.594;2023-05-07T05:11:17;14.40;99.90
22471;DHT22;11402;51.374;6.594;2023-05-07T05:13:42;14.50;99.90
22471;DHT22;11402;51.374;6.594;2023-05-07T05:16:08;14.50;99.90
22471;DHT22;11402;51.374;6.594;2023-05-07T05:18:33;14.50;99.90
22471;DHT22;11402;51.374;6.594;2023-05-07T05:20:59;14.70;99.90
22471;DHT22;11402;51.374;6.594;2023-05-07T05:23:24;14.70;99.90
22471;DHT22;11402;51.374;6.594;2023-05-07T05:25:50;14.90;99.90
22471;DHT22;11402;51.374;6.594;2023-05-07T05:28:20;14.80;99.90
22471;DHT22;11402;51.374;6.594;2023-05-07T05:30:45;14.90;99.90
22471;DHT22;11402;51.374;6.594;2023-05-07T05:33:11;15.20;99.90
22471;DHT22;11402;51.374;6.594;2023-05-07T05:35:36;15.00;99.90
22471;DHT22;11402;51.374;6.594;2023-05-07T05:38:02;15.00;99.90
22471;DHT22;11402;51.374;6.594;2023-05-07T05:40:28;15.20;99.90
22471;DHT22;11402;51.374;6.594;2023-05-07T05:42:54;15.20;99.90
22471;DHT22;11402;51.374;6.594;2023-05-07T05:45:19;15.40;99.90
22471;DHT22;11402;51.374;6.594;2023-05-07T05:47:45;15.50;99.90
22471;DHT22;11402;51.374;6.594;2023-05-07T05:50:11;15.60;99.90
22471;DHT22;11402;51.374;6.594;2023-05-07T05:52:36;15.70;99.90
22471;DHT22;11402;51.374;6.594;2023-05-07T05:55:02;15.80;99.90
22471;DHT22;11402;51.374;6.594;2023-05-07T05:57:27;15.90;99.90
22471;DHT22;11402;51.374;6.594;2023-05-07T05:59:53;15.90;99.90
22471;DHT22;11402;51.374;6.594;2023-05-07T06:02:19;16.00;99.90
22471;DHT22;11402;51.374;6.594;2023-05-07T06:04:45;16.00;99.90
22471;DHT22;11402;51.374;6.594;2023-05-07T06:07:10;16.00;99.90
22471;DHT22;11402;51.374;6.594;2023-05-07T06:09:36;16.10;99.90
22471;DHT22;11402;51.374;6.594;2023-05-07T06:12:02;16.10;99.90
22471;DHT22;11402;51.374;6.594;2023-05-07T06:14:28;16.00;99.90
22471;DHT22;11402;51.374;6.594;2023-05-07T06:16:53;16.10;99.90
22471;DHT22;11402;51.374;6.594;2023-05-07T06:19:19;16.10;99.90
22471;DHT22;11402;51.374;6.594;2023-05-07T06:21:48;16.10;99.90
22471;DHT22;11402;51.374;6.594;2023-05-07T06:24:14;16.20;99.90
22471;DHT22;11402;51.374;6.594;2023-05-07T06:26:39;16.00;99.90
22471;DHT22;11402;51.374;6.594;2023-05-07T06:29:06;16.10;99.90
22471;DHT22;11402;51.374;6.594;2023-05-07T06:31:31;16.10;99.90
22471;DHT22;11402;51.374;6.594;2023-05-07T06:33:57;16.10;99.90
22471;DHT22;11402;51.374;6.594;2023-05-07T06:36:24;16.20;99.90
22471;DHT22;11402;51.374;6.594;2023-05-07T06:38:49;16.20;99.90
22471;DHT22;11402;51.374;6.594;2023-05-07T06:41:15;16.30;99.90
22471;DHT22;11402;51.374;6.594;2023-05-07T06:43:40;16.30;99.90
22471;DHT22;11402;51.374;6.594;2023-05-07T06:46:06;16.20;99.90
22471;DHT22;11402;51.374;6.594;2023-05-07T06:48:32;16.30;99.90
22471;DHT22;11402;51.374;6.594;2023-05-07T06:50:57;16.30;99.90
22471;DHT22;11402;51.374;6.594;2023-05-07T06:53:23;16.40;99.90
22471;DHT22;11402;51.374;6.594;2023-05-07T06:55:49;16.40;99.90
22471;DHT22;11402;51.374;6.594;2023-05-07T06:58:15;16.50;99.90
22471;DHT22;11402;51.374;6.594;2023-05-07T07:00:40;16.50;99.90
22471;DHT22;11402;51.374;6.594;2023-05-07T07:03:06;16.60;99.90
22471;DHT22;11402;51.374;6.594;2023-05-07T07:05:32;16.60;99.90
22471;DHT22;11402;51.374;6.594;2023-05-07T07:07:58;16.60;99.90
22471;DHT22;11402;51.374;6.594;2023-05-07T07:10:23;16.80;99.90
22471;DHT22;11402;51.374;6.594;2023-05-07T07:12:50;16.80;99.90
22471;DHT22;11402;51.374;6.594;2023-05-07T07:15:16;16.90;99.90
22471;DHT22;11402;51.374;6.594;2023-05-07T07:17:42;17.00;99.90
22471;DHT22;11402;51.374;6.594;2023-05-07T07:20:08;16.90;99.90
22471;DHT22;11402;51.374;6.594;2023-05-07T07:22:34;17.00;99.90
22471;DHT22;11402;51.374;6.594;2023-05-07T07:24:59;17.10;99.90
22471;DHT22;11402;51.374;6.594;2023-05-07T07:27:25;17.10;99.90
22471;DHT22;11402;51.374;6.594;2023-05-07T07:29:51;17.20;99.90
22471;DHT22;11402;51.374;6.594;2023-05-07T07:32:16;17.10;99.90
22471;DHT22;11402;51.374;6.594;2023-05-07T07:34:42;17.20;99.90
22471;DHT22;11402;51.374;6.594;2023-05-07T07:37:08;17.20;99.90
22471;DHT22;11402;51.374;6.594;2023-05-07T07:39:33;17.30;99.90
22471;DHT22;11402;51.374;6.594;2023-05-07T07:41:59;17.40;99.90
22471;DHT22;11402;51.374;6.594;2023-05-07T07:44:25;17.40;99.90
22471;DHT22;11402;51.374;6.594;2023-05-07T07:46:51;17.40;99.90
22471;DHT22;11402;51.374;6.594;2023-05-07T07:49:16;17.50;99.90
22471;DHT22;11402;51.374;6.594;2023-05-07T07:51:42;17.70;99.90
22471;DHT22;11402;51.374;6.594;2023-05-07T07:54:08;15.80;99.90
22471;DHT22;11402;51.374;6.594;2023-05-07T07:56:34;17.90;99.90
22471;DHT22;11402;51.374;6.594;2023-05-07T07:58:59;18.00;99.90
22471;DHT22;11402;51.374;6.594;2023-05-07T08:01:25;17.90;99.90
22471;DHT22;11402;51.374;6.594;2023-05-07T08:03:51;18.00;99.90
22471;DHT22;11402;51.374;6.594;2023-05-07T08:06:17;18.10;99.90
22471;DHT22;11402;51.374;6.594;2023-05-07T08:08:43;17.20;99.90
22471;DHT22;11402;51.374;6.594;2023-05-07T08:11:08;18.40;99.90
22471;DHT22;11402;51.374;6.594;2023-05-07T08:13:35;18.40;99.90
22471;DHT22;11402;51.374;6.594;2023-05-07T08:16:01;18.30;99.90
22471;DHT22;11402;51.374;6.594;2023-05-07T08:18:26;18.30;99.90
22471;DHT22;11402;51.374;6.594;2023-05-07T08:20:54;18.20;99.90
22471;DHT22;11402;51.374;6.594;2023-05-07T08:23:20;18.30;99.90
22471;DHT22;11402;51.374;6.594;2023-05-07T08:25:46;18.50;99.90
22471;DHT22;11402;51.374;6.594;2023-05-07T08:28:11;18.60;99.90
22471;DHT22;11402;51.374;6.594;2023-05-07T08:30:37;18.60;99.90
22471;DHT22;11402;51.374;6.594;2023-05-07T08:33:02;18.70;99.90
22471;DHT22;11402;51.374;6.594;2023-05-07T08:35:28;18.80;99.90
22471;DHT22;11402;51.374;6.594;2023-05-07T08:37:54;18.90;99.90
22471;DHT22;11402;51.374;6.594;2023-05-07T08:40:22;19.10;99.90
22471;DHT22;11402;51.374;6.594;2023-05-07T08:42:52;19.30;99.90
22471;DHT22;11402;51.374;6.594;2023-05-07T08:45:19;19.40;99.90
22471;DHT22;11402;51.374;6.594;2023-05-07T08:47:52;19.60;99.90
22471;DHT22;11402;51.374;6.594;2023-05-07T08:50:20;19.60;99.90
22471;DHT22;11402;51.374;6.594;2023-05-07T08:55:15;19.70;99.90
22471;DHT22;11402;51.374;6.594;2023-05-07T08:57:40;19.90;99.90
22471;DHT22;11402;51.374;6.594;2023-05-07T09:00:06;20.00;99.90
22471;DHT22;11402;51.374;6.594;2023-05-07T09:02:33;20.00;99.90
22471;DHT22;11402;51.374;6.594;2023-05-07T09:05:00;20.00;99.90
22471;DHT22;11402;51.374;6.594;2023-05-07T09:07:25;19.90;99.90
22471;DHT22;11402;51.374;6.594;2023-05-07T09:09:52;19.90;99.90
22471;DHT22;11402;51.374;6.594;2023-05-07T09:12:18;20.00;99.90
22471;DHT22;11402;51.374;6.594;2023-05-07T09:14:44;20.10;99.90
22471;DHT22;11402;51.374;6.594;2023-05-07T09:17:11;20.20;99.90
22471;DHT22;11402;51.374;6.594;2023-05-07T09:19:36;20.10;99.90
22471;DHT22;11402;51.374;6.594;2023-05-07T09:22:03;20.10;99.90
22471;DHT22;11402;51.374;6.594;2023-05-07T09:24:29;20.20;99.90
22471;DHT22;11402;51.374;6.594;2023-05-07T09:26:59;20.20;99.90
22471;DHT22;11402;51.374;6.594;2023-05-07T09:29:26;20.20;99.90
22471;DHT22;11402;51.374;6.594;2023-05-07T09:31:54;20.30;99.90
22471;DHT22;11402;51.374;6.594;2023-05-07T09:34:20;20.30;99.90
22471;DHT22;11402;51.374;6.594;2023-05-07T09:36:46;20.30;99.90
22471;DHT22;11402;51.374;6.594;2023-05-07T09:39:12;20.30;99.90
22471;DHT22;11402;51.374;6.594;2023-05-07T09:41:48;20.20;99.90
22471;DHT22;11402;51.374;6.594;2023-05-07T09:44:15;20.40;99.90
22471;DHT22;11402;51.374;6.594;2023-05-07T09:46:43;20.60;99.90
22471;DHT22;11402;51.374;6.594;2023-05-07T09:49:18;20.80;99.90
22471;DHT22;11402;51.374;6.594;2023-05-07T09:51:48;20.60;99.90
22471;DHT22;11402;51.374;6.594;2023-05-07T09:54:16;20.60;99.90
22471;DHT22;11402;51.374;6.594;2023-05-07T09:56:43;20.80;99.90
22471;DHT22;11402;51.374;6.594;2023-05-07T09:59:14;21.00;99.90
22471;DHT22;11402;51.374;6.594;2023-05-07T10:01:41;21.10;99.90
22471;DHT22;11402;51.374;6.594;2023-05-07T10:04:07;20.90;99.90
22471;DHT22;11402;51.374;6.594;2023-05-07T10:06:34;20.80;99.90
22471;DHT22;11402;51.374;6.594;2023-05-07T10:09:01;20.90;99.90
22471;DHT22;11402;51.374;6.594;2023-05-07T10:11:28;21.00;99.90
22471;DHT22;11402;51.374;6.594;2023-05-07T10:13:53;21.00;99.90
22471;DHT22;11402;51.374;6.594;2023-05-07T10:16:20;21.10;99.90
22471;DHT22;11402;51.374;6.594;2023-05-07T10:18:46;21.20;99.90
22471;DHT22;11402;51.374;6.594;2023-05-07T10:21:19;21.30;99.90
22471;DHT22;11402;51.374;6.594;2023-05-07T10:23:47;21.30;99.90
22471;DHT22;11402;51.374;6.594;2023-05-07T10:26:15;21.40;99.90
22471;DHT22;11402;51.374;6.594;2023-05-07T10:28:44;21.50;99.90
22471;DHT22;11402;51.374;6.594;2023-05-07T10:34:15;21.50;99.90
22471;DHT22;11402;51.374;6.594;2023-05-07T10:36:42;21.60;99.90
22471;DHT22;11402;51.374;6.594;2023-05-07T10:39:08;21.60;99.90
22471;DHT22;11402;51.374;6.594;2023-05-07T10:41:35;21.60;99.90
22471;DHT22;11402;51.374;6.594;2023-05-07T10:44:00;21.60;99.90
22471;DHT22;11402;51.374;6.594;2023-05-07T10:46:27;21.60;99.90
22471;DHT22;11402;51.374;6.594;2023-05-07T10:51:34;21.70;99.90
22471;DHT22;11402;51.374;6.594;2023-05-07T10:56:35;21.90;99.90
22471;DHT22;11402;51.374;6.594;2023-05-07T11:04:19;22.20;99.90
22471;DHT22;11402;51.374;6.594;2023-05-07T11:09:58;22.20;99.90
22471;DHT22;11402;51.374;6.594;2023-05-07T11:15:08;21.80;99.90
22471;DHT22;11402;51.374;6.594;2023-05-07T11:17:34;21.70;99.90
22471;DHT22;11402;51.374;6.594;2023-05-07T11:20:16;21.50;99.90
22471;DHT22;11402;51.374;6.594;2023-05-07T11:22:42;21.50;99.90
22471;DHT22;11402;51.374;6.594;2023-05-07T11:25:08;21.60;99.90
22471;DHT22;11402;51.374;6.594;2023-05-07T11:27:33;21.90;99.90
22471;DHT22;11402;51.374;6.594;2023-05-07T11:29:59;21.90;99.90
22471;DHT22;11402;51.374;6.594;2023-05-07T11:32:31;21.70;99.90
22471;DHT22;11402;51.374;6.594;2023-05-07T11:34:59;21.70;99.90
22471;DHT22;11402;51.374;6.594;2023-05-07T11:38:05;21.70;99.90
22471;DHT22;11402;51.374;6.594;2023-05-07T11:40:30;21.90;99.90
22471;DHT22;11402;51.374;6.594;2023-05-07T11:42:56;22.10;99.90
22471;DHT22;11402;51.374;6.594;2023-05-07T11:45:24;22.30;99.90
22471;DHT22;11402;51.374;6.594;2023-05-07T11:47:53;22.20;99.90
22471;DHT22;11402;51.374;6.594;2023-05-07T11:50:18;22.20;99.90
22471;DHT22;11402;51.374;6.594;2023-05-07T11:52:51;22.00;99.90
22471;DHT22;11402;51.374;6.594;2023-05-07T11:55:18;22.00;99.90
22471;DHT22;11402;51.374;6.594;2023-05-07T11:57:44;22.10;99.90
22471;DHT22;11402;51.374;6.594;2023-05-07T12:00:10;22.10;99.90
22471;DHT22;11402;51.374;6.594;2023-05-07T12:02:36;22.00;99.90
22471;DHT22;11402;51.374;6.594;2023-05-07T12:05:02;22.20;99.90
22471;DHT22;11402;51.374;6.594;2023-05-07T12:07:27;22.20;99.90
22471;DHT22;11402;51.374;6.594;2023-05-07T12:09:53;21.90;99.90
22471;DHT22;11402;51.374;6.594;2023-05-07T12:12:19;21.80;99.90
22471;DHT22;11402;51.374;6.594;2023-05-07T12:14:45;21.80;99.90
22471;DHT22;11402;51.374;6.594;2023-05-07T12:17:12;22.00;99.90
22471;DHT22;11402;51.374;6.594;2023-05-07T12:19:40;22.00;99.90
22471;DHT22;11402;51.374;6.594;2023-05-07T12:22:10;22.00;99.90
22471;DHT22;11402;51.374;6.594;2023-05-07T12:24:56;22.10;99.90
22471;DHT22;11402;51.374;6.594;2023-05-07T12:27:21;22.00;99.90
22471;DHT22;11402;51.374;6.594;2023-05-07T12:29:48;22.00;99.90
22471;DHT22;11402;51.374;6.594;2023-05-07T12:32:16;22.00;99.90
22471;DHT22;11402;51.374;6.594;2023-05-07T12:34:46;21.90;99.90
22471;DHT22;11402;51.374;6.594;2023-05-07T12:37:12;21.70;99.90
22471;DHT22;11402;51.374;6.594;2023-05-07T12:39:44;21.80;99.90
22471;DHT22;11402;51.374;6.594;2023-05-07T12:42:15;21.90;99.90
22471;DHT22;11402;51.374;6.594;2023-05-07T12:44:41;22.00;99.90
22471;DHT22;11402;51.374;6.594;2023-05-07T12:47:07;22.10;99.90
22471;DHT22;11402;51.374;6.594;2023-05-07T12:49:34;21.80;99.90
22471;DHT22;11402;51.374;6.594;2023-05-07T12:52:03;21.60;99.90
22471;DHT22;11402;51.374;6.594;2023-05-07T12:54:32;21.60;99.90
22471;DHT22;11402;51.374;6.594;2023-05-07T12:57:06;21.60;99.90
22471;DHT22;11402;51.374;6.594;2023-05-07T12:59:39;21.70;99.90
22471;DHT22;11402;51.374;6.594;2023-05-07T13:02:06;21.60;99.90
22471;DHT22;11402;51.374;6.594;2023-05-07T13:04:32;21.60;99.90
22471;DHT22;11402;51.374;6.594;2023-05-07T13:06:59;21.60;99.90
22471;DHT22;11402;51.374;6.594;2023-05-07T13:09:24;21.50;99.90
22471;DHT22;11402;51.374;6.594;2023-05-07T13:11:50;21.50;99.90
22471;DHT22;11402;51.374;6.594;2023-05-07T13:14:16;21.70;99.90
22471;DHT22;11402;51.374;6.594;2023-05-07T13:16:42;21.90;99.90
22471;DHT22;11402;51.374;6.594;2023-05-07T13:19:07;21.70;99.90
22471;DHT22;11402;51.374;6.594;2023-05-07T13:21:33;21.70;99.90
22471;DHT22;11402;51.374;6.594;2023-05-07T13:23:59;21.60;99.90
22471;DHT22;11402;51.374;6.594;2023-05-07T13:26:25;21.60;99.90
22471;DHT22;11402;51.374;6.594;2023-05-07T13:28:54;21.70;99.90
22471;DHT22;11402;51.374;6.594;2023-05-07T13:31:20;21.70;99.90
22471;DHT22;11402;51.374;6.594;2023-05-07T13:33:46;21.60;99.90
22471;DHT22;11402;51.374;6.594;2023-05-07T13:36:12;21.70;99.90
22471;DHT22;11402;51.374;6.594;2023-05-07T13:38:38;21.60;99.90
22471;DHT22;11402;51.374;6.594;2023-05-07T13:41:04;22.10;99.90
22471;DHT22;11402;51.374;6.594;2023-05-07T13:43:30;20.70;99.90
22471;DHT22;11402;51.374;6.594;2023-05-07T13:45:57;21.90;99.90
22471;DHT22;11402;51.374;6.594;2023-05-07T13:48:22;21.30;99.90
22471;DHT22;11402;51.374;6.594;2023-05-07T13:50:48;21.30;99.90
22471;DHT22;11402;51.374;6.594;2023-05-07T13:53:13;21.40;99.90
22471;DHT22;11402;51.374;6.594;2023-05-07T13:55:41;21.40;99.90
22471;DHT22;11402;51.374;6.594;2023-05-07T13:58:06;21.30;99.90
22471;DHT22;11402;51.374;6.594;2023-05-07T14:00:32;21.20;99.90
22471;DHT22;11402;51.374;6.594;2023-05-07T14:02:57;21.20;99.90
22471;DHT22;11402;51.374;6.594;2023-05-07T14:05:23;21.20;99.90
22471;DHT22;11402;51.374;6.594;2023-05-07T14:07:52;21.20;99.90
22471;DHT22;11402;51.374;6.594;2023-05-07T14:10:18;21.20;99.90
22471;DHT22;11402;51.374;6.594;2023-05-07T14:12:44;20.80;99.90
22471;DHT22;11402;51.374;6.594;2023-05-07T14:15:10;20.70;99.90
22471;DHT22;11402;51.374;6.594;2023-05-07T14:17:36;20.70;99.90
22471;DHT22;11402;51.374;6.594;2023-05-07T14:20:02;20.60;99.90
22471;DHT22;11402;51.374;6.594;2023-05-07T14:22:28;20.50;99.90
22471;DHT22;11402;51.374;6.594;2023-05-07T14:24:53;20.60;99.90
22471;DHT22;11402;51.374;6.594;2023-05-07T14:27:19;20.40;99.90
22471;DHT22;11402;51.374;6.594;2023-05-07T14:29:44;20.30;99.90
22471;DHT22;11402;51.374;6.594;2023-05-07T14:32:11;20.20;99.90
22471;DHT22;11402;51.374;6.594;2023-05-07T14:34:36;19.90;99.90
22471;DHT22;11402;51.374;6.594;2023-05-07T14:37:02;20.00;99.90
22471;DHT22;11402;51.374;6.594;2023-05-07T14:39:28;19.80;99.90
22471;DHT22;11402;51.374;6.594;2023-05-07T14:41:53;19.90;99.90
22471;DHT22;11402;51.374;6.594;2023-05-07T14:44:21;19.80;99.90
22471;DHT22;11402;51.374;6.594;2023-05-07T14:46:46;19.80;99.90
22471;DHT22;11402;51.374;6.594;2023-05-07T14:49:14;19.90;99.90
22471;DHT22;11402;51.374;6.594;2023-05-07T14:51:43;19.90;99.90
22471;DHT22;11402;51.374;6.594;2023-05-07T14:54:09;19.80;99.90
22471;DHT22;11402;51.374;6.594;2023-05-07T14:56:35;19.70;99.90
22471;DHT22;11402;51.374;6.594;2023-05-07T14:59:02;19.70;99.90
22471;DHT22;11402;51.374;6.594;2023-05-07T15:01:28;19.60;99.90
22471;DHT22;11402;51.374;6.594;2023-05-07T15:03:54;19.50;99.90
22471;DHT22;11402;51.374;6.594;2023-05-07T15:06:20;19.50;99.90
22471;DHT22;11402;51.374;6.594;2023-05-07T15:08:46;19.60;99.90
22471;DHT22;11402;51.374;6.594;2023-05-07T15:11:11;19.80;99.90
22471;DHT22;11402;51.374;6.594;2023-05-07T15:13:37;19.90;99.90
22471;DHT22;11402;51.374;6.594;2023-05-07T15:16:03;19.90;99.90
22471;DHT22;11402;51.374;6.594;2023-05-07T15:18:28;19.80;99.90
22471;DHT22;11402;51.374;6.594;2023-05-07T15:20:55;19.80;99.90
22471;DHT22;11402;51.374;6.594;2023-05-07T15:23:21;19.80;99.90
22471;DHT22;11402;51.374;6.594;2023-05-07T15:25:46;19.70;99.90
22471;DHT22;11402;51.374;6.594;2023-05-07T15:28:12;19.80;99.90
22471;DHT22;11402;51.374;6.594;2023-05-07T15:30:37;19.70;99.90
22471;DHT22;11402;51.374;6.594;2023-05-07T15:33:03;19.60;99.90
22471;DHT22;11402;51.374;6.594;2023-05-07T15:35:29;19.40;99.90
22471;DHT22;11402;51.374;6.594;2023-05-07T15:37:54;19.30;99.90
22471;DHT22;11402;51.374;6.594;2023-05-07T15:40:20;19.60;99.90
22471;DHT22;11402;51.374;6.594;2023-05-07T15:42:46;19.70;99.90
22471;DHT22;11402;51.374;6.594;2023-05-07T15:45:12;19.60;99.90
22471;DHT22;11402;51.374;6.594;2023-05-07T15:47:37;19.50;99.90